Time;durP1;ratioP1;P1;durP2;ratioP2;P2;SDS_P1;SDS_P2;PMS_P1;PMS_P2;Temp;Humidity;BMP_temperature;BMP_pressure;BME280_temperature;BME280_humidity;BME280_pressure;Samples;Min_cycle;Max_cycle;Signal;HPM_P1;HPM_P2
2021/01/29 03:12:13;;;;;;;45.13;22.63;;;7.70;99.90;;;;;;1467810;23;20468;-92
2021/01/29 03:40:49;;;;;;;32.80;18.90;;;7.70;99.90;;;;;;4968274;28;20687;-95
2021/01/29 03:43:33;;;;;;;24.65;17.25;;;7.70;99.90;;;;;;4964693;28;20528;-94
2021/01/29 03:46:28;;;;;;;24.70;15.95;;;7.70;99.90;;;;;;4969256;29;20191;-95
2021/01/29 03:52:55;;;;;;;22.55;13.18;;;7.70;99.90;;;;;;4973966;29;20183;-95
2021/01/29 03:56:08;;;;;;;22.75;15.85;;;7.70;99.90;;;;;;4971764;29;20201;-95
2021/01/29 03:58:51;;;;;;;18.25;12.02;;;7.60;99.90;;;;;;4968126;28;20223;-94
2021/01/29 04:01:54;;;;;;;20.73;10.32;;;7.70;99.90;;;;;;4981313;28;20175;-94
2021/01/29 04:04:47;;;;;;;16.40;9.82;;;7.70;99.90;;;;;;4981027;28;20175;-95
2021/01/29 04:07:20;;;;;;;23.55;10.65;;;7.70;99.90;;;;;;4980960;28;20224;-95
2021/01/29 04:09:52;;;;;;;16.98;8.77;;;7.70;99.90;;;;;;4978709;28;20206;-94
2021/01/29 04:12:33;;;;;;;11.65;8.68;;;7.70;99.90;;;;;;4955591;29;20199;-96
2021/01/29 04:57:36;;;;;;;7.75;5.20;;;7.90;99.90;;;;;;5457437;23;20221;-96
2021/01/29 05:42:12;;;;;;;7.60;5.95;;;8.10;99.90;;;;;;4997064;28;20260;-92
2021/01/29 05:45:18;;;;;;;6.75;5.50;;;8.10;99.90;;;;;;4980827;28;20190;-92
2021/01/29 05:48:34;;;;;;;9.43;6.70;;;8.10;99.90;;;;;;4950673;28;20191;-92
2021/01/29 05:51:28;;;;;;;6.63;5.18;;;8.10;99.90;;;;;;4977932;28;20218;-92
2021/01/29 05:54:30;;;;;;;7.93;6.07;;;8.10;99.90;;;;;;4980660;28;20197;-92
2021/01/29 05:57:31;;;;;;;6.63;5.85;;;8.10;99.90;;;;;;4996208;28;20198;-91
2021/01/29 06:00:09;;;;;;;7.03;5.88;;;8.10;99.90;;;;;;4993924;28;20189;-95
2021/01/29 06:02:58;;;;;;;7.43;5.70;;;8.10;99.90;;;;;;4978331;28;20297;-94
2021/01/29 06:05:41;;;;;;;10.00;7.45;;;8.10;99.90;;;;;;4986901;28;20240;-95
2021/01/29 06:08:35;;;;;;;11.55;6.95;;;8.10;99.90;;;;;;4982999;28;20285;-95
2021/01/29 06:11:15;;;;;;;11.48;7.70;;;8.10;99.90;;;;;;4990419;28;20185;-95
2021/01/29 06:14:24;;;;;;;9.68;8.30;;;8.10;99.90;;;;;;5008409;28;20241;-95
2021/01/29 06:17:20;;;;;;;9.23;7.55;;;8.10;99.90;;;;;;5059144;23;20239;-96
2021/01/29 06:22:53;;;;;;;13.48;7.43;;;8.10;99.90;;;;;;5335435;23;20226;-93
2021/01/29 06:25:55;;;;;;;13.02;7.80;;;8.10;99.90;;;;;;4977479;28;20187;-92
2021/01/29 06:29:03;;;;;;;7.78;6.75;;;8.20;99.90;;;;;;4978474;28;20205;-92
2021/01/29 06:32:07;;;;;;;10.48;7.55;;;8.20;99.90;;;;;;4969607;28;20202;-92
2021/01/29 06:34:48;;;;;;;14.07;7.50;;;8.20;99.90;;;;;;4979559;28;20194;-92
2021/01/29 06:37:25;;;;;;;9.95;8.02;;;8.20;99.90;;;;;;4979732;28;20253;-91
2021/01/29 06:40:04;;;;;;;10.25;8.18;;;8.20;99.90;;;;;;4979743;28;20585;-91
2021/01/29 06:43:06;;;;;;;13.43;9.43;;;8.20;99.90;;;;;;4977925;28;20219;-91
2021/01/29 06:45:56;;;;;;;15.93;10.68;;;8.30;99.90;;;;;;4980265;28;20187;-93
2021/01/29 06:48:48;;;;;;;13.65;10.38;;;8.30;99.90;;;;;;4981689;28;20194;-91
2021/01/29 06:51:52;;;;;;;15.07;11.23;;;8.40;99.90;;;;;;4980354;28;20698;-87
2021/01/29 06:54:35;;;;;;;11.85;8.65;;;8.40;99.90;;;;;;4979035;28;20178;-88
2021/01/29 06:57:10;;;;;;;11.55;7.55;;;8.40;99.90;;;;;;4978833;28;20630;-89
2021/01/29 07:00:12;;;;;;;13.00;11.65;;;8.50;99.90;;;;;;4979030;28;20281;-89
2021/01/29 07:03:13;;;;;;;8.43;5.75;;;8.50;99.90;;;;;;4978852;28;20195;-88
2021/01/29 07:06:00;;;;;;;7.10;5.05;;;8.50;99.90;;;;;;4979041;28;20204;-90
2021/01/29 07:08:45;;;;;;;6.35;5.35;;;8.50;99.90;;;;;;4979444;28;20191;-89
2021/01/29 07:11:43;;;;;;;7.13;5.32;;;8.50;99.90;;;;;;4978571;28;20198;-88
2021/01/29 07:14:24;;;;;;;6.05;5.45;;;8.50;99.90;;;;;;4979643;28;20250;-89
2021/01/29 07:17:02;;;;;;;7.82;5.80;;;8.50;99.90;;;;;;4978625;28;20187;-90
2021/01/29 07:19:41;;;;;;;8.45;6.40;;;8.60;99.90;;;;;;4978652;28;20229;-89
2021/01/29 07:22:45;;;;;;;7.47;5.72;;;8.60;99.90;;;;;;4978625;28;20292;-88
2021/01/29 07:25:20;;;;;;;6.43;5.03;;;8.60;99.90;;;;;;4979351;28;20202;-89
2021/01/29 07:27:53;;;;;;;6.07;4.95;;;8.60;99.90;;;;;;4979803;28;20249;-89
2021/01/29 07:30:50;;;;;;;6.38;5.57;;;8.60;99.90;;;;;;4980472;28;20191;-92
2021/01/29 07:33:27;;;;;;;7.05;5.53;;;8.50;99.90;;;;;;4946440;28;20199;-90
2021/01/29 07:36:15;;;;;;;7.30;5.03;;;8.50;99.90;;;;;;4978394;28;20669;-91
2021/01/29 07:39:29;;;;;;;7.10;5.80;;;8.50;99.90;;;;;;4978078;28;20619;-89
2021/01/29 07:42:12;;;;;;;6.75;5.43;;;8.50;99.90;;;;;;4977698;28;20219;-89
2021/01/29 07:44:49;;;;;;;10.02;7.05;;;8.50;99.90;;;;;;4977919;28;20693;-85
2021/01/29 07:47:44;;;;;;;14.23;7.80;;;8.50;99.90;;;;;;4976640;28;20198;-91
2021/01/29 07:50:21;;;;;;;9.82;7.15;;;8.50;99.90;;;;;;4978815;28;20191;-87
2021/01/29 07:52:54;;;;;;;10.98;6.50;;;8.50;99.90;;;;;;4942266;28;20215;-90
2021/01/29 07:55:26;;;;;;;8.88;7.32;;;8.50;99.90;;;;;;4967727;28;20628;-90
2021/01/29 07:58:28;;;;;;;9.57;7.05;;;8.50;99.90;;;;;;4978075;28;20285;-90
2021/01/29 08:01:26;;;;;;;11.10;8.30;;;8.50;99.90;;;;;;4979539;28;20187;-91
2021/01/29 08:04:33;;;;;;;9.90;7.85;;;8.50;99.90;;;;;;4951596;28;20666;-89
2021/01/29 08:07:14;;;;;;;13.95;7.90;;;8.50;99.90;;;;;;4949605;28;20198;-92
2021/01/29 08:09:45;;;;;;;10.68;8.63;;;8.50;99.90;;;;;;4967051;28;20207;-90
2021/01/29 08:12:16;;;;;;;8.77;6.55;;;8.50;99.90;;;;;;4959712;29;20192;-92
2021/01/29 08:15:04;;;;;;;12.02;8.00;;;8.60;99.90;;;;;;4959821;29;20239;-90
2021/01/29 08:17:43;;;;;;;10.15;7.03;;;8.50;99.90;;;;;;4958671;29;20191;-90
2021/01/29 08:20:27;;;;;;;11.15;8.23;;;8.50;99.90;;;;;;4958372;28;20195;-89
2021/01/29 08:23:06;;;;;;;10.65;8.30;;;8.50;99.90;;;;;;4992189;28;20222;-86
2021/01/29 08:26:06;;;;;;;10.95;7.35;;;8.50;99.90;;;;;;4999345;28;20186;-90
2021/01/29 08:29:12;;;;;;;10.30;8.88;;;8.50;99.90;;;;;;5002203;28;20249;-91
2021/01/29 08:32:02;;;;;;;9.05;7.47;;;8.50;99.90;;;;;;5010645;28;20198;-92
2021/01/29 08:34:58;;;;;;;10.98;8.95;;;8.50;99.90;;;;;;5007705;28;20204;-90
2021/01/29 08:37:36;;;;;;;9.73;8.05;;;8.60;99.90;;;;;;5011149;28;20197;-94
2021/01/29 08:40:28;;;;;;;9.15;8.05;;;8.50;99.90;;;;;;5010972;28;20221;-91
2021/01/29 08:43:30;;;;;;;10.73;7.10;;;8.50;99.90;;;;;;5003584;28;20186;-92
2021/01/29 08:46:36;;;;;;;8.65;7.18;;;8.50;99.90;;;;;;4996287;28;20323;-91
2021/01/29 08:49:19;;;;;;;8.57;7.03;;;8.60;99.90;;;;;;4999565;28;20193;-90
2021/01/29 08:51:54;;;;;;;12.10;7.72;;;8.60;99.90;;;;;;5002156;28;20197;-91
2021/01/29 08:54:47;;;;;;;9.68;7.10;;;8.60;99.90;;;;;;5002500;28;20186;-92
2021/01/29 08:57:25;;;;;;;11.75;7.70;;;8.60;99.90;;;;;;5001566;28;20630;-91
2021/01/29 08:59:51;;;;;;;14.32;10.05;;;8.70;99.90;;;;;;5003681;28;20305;-91
2021/01/29 09:02:27;;;;;;;21.83;11.02;;;8.70;99.90;;;;;;5001539;28;20190;-87
2021/01/29 09:05:00;;;;;;;20.02;11.13;;;8.70;99.90;;;;;;4998479;28;20200;-87
2021/01/29 09:07:30;;;;;;;20.08;8.27;;;8.70;99.90;;;;;;4998204;28;20209;-90
2021/01/29 09:10:09;;;;;;;23.60;11.52;;;8.70;99.90;;;;;;5001182;28;20202;-91
2021/01/29 09:12:37;;;;;;;20.48;8.80;;;8.70;99.90;;;;;;5000450;28;20198;-92
2021/01/29 09:15:13;;;;;;;26.45;13.52;;;8.70;99.90;;;;;;4998940;28;20194;-89
2021/01/29 09:17:45;;;;;;;13.25;8.05;;;8.80;99.90;;;;;;4998071;28;20190;-88
2021/01/29 09:20:13;;;;;;;18.10;8.65;;;8.70;99.90;;;;;;4998101;28;20693;-89
2021/01/29 09:22:45;;;;;;;14.00;7.70;;;8.70;99.90;;;;;;4999674;28;20719;-91
2021/01/29 09:25:20;;;;;;;15.85;9.10;;;8.70;99.90;;;;;;4998507;28;20201;-92
2021/01/29 09:28:07;;;;;;;14.40;9.63;;;8.70;99.90;;;;;;4998302;28;20185;-92
2021/01/29 09:30:38;;;;;;;15.15;7.65;;;8.60;99.90;;;;;;4998368;28;20189;-92
2021/01/29 09:33:21;;;;;;;15.20;7.38;;;8.60;99.90;;;;;;5009848;28;20190;-93
2021/01/29 09:35:54;;;;;;;19.05;8.50;;;8.60;99.90;;;;;;5011000;28;20174;-94
2021/01/29 09:38:25;;;;;;;16.95;7.90;;;8.60;99.90;;;;;;5005076;28;20216;-92
2021/01/29 09:41:01;;;;;;;16.65;7.25;;;8.60;99.90;;;;;;5003956;28;20194;-92
2021/01/29 09:43:41;;;;;;;12.95;6.82;;;8.60;99.90;;;;;;5008126;28;20268;-92
2021/01/29 09:46:08;;;;;;;14.23;7.22;;;8.60;99.90;;;;;;5000452;28;20186;-91
2021/01/29 09:48:37;;;;;;;9.30;5.93;;;8.60;99.90;;;;;;4999503;28;20660;-92
2021/01/29 09:51:11;;;;;;;12.50;8.40;;;8.50;99.90;;;;;;4999272;28;20242;-90
2021/01/29 09:53:50;;;;;;;15.95;9.65;;;8.50;99.90;;;;;;4999852;28;20186;-92
2021/01/29 09:56:23;;;;;;;14.50;8.25;;;8.50;99.90;;;;;;5003077;28;20281;-95
2021/01/29 09:59:15;;;;;;;21.10;9.68;;;8.50;99.90;;;;;;5000895;28;20217;-93
2021/01/29 10:01:48;;;;;;;17.42;10.85;;;8.40;99.90;;;;;;4999591;28;20216;-94
2021/01/29 10:04:22;;;;;;;27.63;9.10;;;8.50;99.90;;;;;;4989423;28;20174;-94
2021/01/29 10:07:03;;;;;;;15.77;10.60;;;8.40;99.90;;;;;;5003351;28;20746;-93
2021/01/29 10:10:03;;;;;;;24.95;12.07;;;8.50;99.90;;;;;;5004278;28;20210;-93
2021/01/29 10:12:36;;;;;;;13.30;10.30;;;8.40;99.90;;;;;;4994838;28;20194;-90
2021/01/29 10:15:06;;;;;;;18.52;9.73;;;8.40;99.90;;;;;;4994703;28;20194;-90
2021/01/29 10:17:41;;;;;;;14.75;9.80;;;8.40;99.90;;;;;;4999530;28;20191;-88
2021/01/29 10:20:12;;;;;;;21.80;11.02;;;8.40;99.90;;;;;;4982307;28;20298;-92
2021/01/29 10:23:04;;;;;;;21.58;11.70;;;8.30;99.90;;;;;;4998654;28;20311;-92
2021/01/29 10:25:42;;;;;;;30.58;12.13;;;8.40;99.90;;;;;;4999514;28;20297;-94
2021/01/29 10:28:18;;;;;;;23.75;12.13;;;8.30;99.90;;;;;;4997920;28;20256;-88
2021/01/29 10:31:04;;;;;;;20.83;10.40;;;8.30;99.90;;;;;;4988363;28;20194;-93
2021/01/29 10:33:40;;;;;;;26.48;12.63;;;8.30;99.90;;;;;;5002349;28;20268;-93
2021/01/29 10:36:11;;;;;;;14.77;10.63;;;8.30;99.90;;;;;;4995572;28;20190;-88
2021/01/29 10:38:44;;;;;;;25.90;14.15;;;8.30;99.90;;;;;;4984852;28;21680;-91
2021/01/29 10:41:20;;;;;;;30.40;13.60;;;8.30;99.90;;;;;;4993206;28;20277;-89
2021/01/29 10:43:52;;;;;;;40.25;14.82;;;8.20;99.90;;;;;;4994596;28;20190;-88
2021/01/29 10:46:46;;;;;;;22.42;11.63;;;8.30;99.90;;;;;;4995160;28;20182;-89
2021/01/29 10:49:21;;;;;;;24.65;12.55;;;8.40;99.90;;;;;;4957398;28;20244;-88
2021/01/29 10:52:00;;;;;;;33.45;15.50;;;8.40;99.90;;;;;;4989754;28;20197;-90
2021/01/29 10:54:35;;;;;;;17.13;9.35;;;8.60;99.90;;;;;;4989736;28;20221;-89
2021/01/29 10:57:08;;;;;;;24.65;10.63;;;8.70;99.90;;;;;;4980863;28;20201;-90
2021/01/29 10:59:42;;;;;;;25.90;11.45;;;9.00;99.90;;;;;;5001237;28;20214;-90
2021/01/29 11:02:14;;;;;;;22.15;9.63;;;9.10;99.90;;;;;;4985731;28;20194;-92
2021/01/29 11:04:46;;;;;;;21.52;9.75;;;9.30;99.90;;;;;;4985041;28;20187;-93
2021/01/29 11:07:21;;;;;;;16.38;7.95;;;9.30;99.90;;;;;;4997320;28;20217;-91
2021/01/29 11:09:57;;;;;;;17.60;7.38;;;9.30;99.90;;;;;;4996066;28;20266;-92
2021/01/29 11:12:33;;;;;;;27.17;8.25;;;9.30;99.90;;;;;;4990908;28;20282;-92
2021/01/29 11:15:10;;;;;;;14.32;7.63;;;9.30;99.90;;;;;;4979237;28;20191;-92
2021/01/29 11:17:44;;;;;;;22.20;8.48;;;9.50;99.90;;;;;;4999595;28;20193;-93
2021/01/29 11:20:33;;;;;;;18.73;9.38;;;9.40;99.90;;;;;;4999758;28;20209;-90
2021/01/29 11:23:32;;;;;;;18.08;10.43;;;9.30;99.90;;;;;;4988349;28;20232;-95
2021/01/29 11:26:12;;;;;;;20.90;9.20;;;9.30;99.90;;;;;;5000840;28;20189;-92
2021/01/29 11:28:56;;;;;;;17.75;7.20;;;9.30;99.90;;;;;;4999023;28;20649;-92
2021/01/29 11:31:41;;;;;;;15.45;7.55;;;9.40;99.90;;;;;;4998702;28;20634;-90
2021/01/29 11:34:16;;;;;;;20.92;10.07;;;9.40;99.90;;;;;;4999587;28;20285;-91
2021/01/29 11:36:46;;;;;;;13.95;8.50;;;9.30;99.90;;;;;;4997474;28;20217;-91
2021/01/29 11:39:18;;;;;;;20.48;9.70;;;9.30;99.90;;;;;;4997731;28;20320;-89
2021/01/29 11:41:58;;;;;;;17.73;8.57;;;9.40;99.90;;;;;;4998488;28;20267;-89
2021/01/29 11:44:35;;;;;;;24.17;10.75;;;9.50;99.90;;;;;;5001070;28;20190;-91
2021/01/29 11:47:10;;;;;;;18.50;7.40;;;9.50;99.90;;;;;;4998728;28;20197;-90
2021/01/29 11:49:48;;;;;;;19.98;8.50;;;9.60;99.90;;;;;;5000613;28;20276;-86
2021/01/29 11:52:26;;;;;;;24.83;8.70;;;9.60;99.90;;;;;;5005030;28;20260;-96
2021/01/29 11:55:01;;;;;;;32.47;9.30;;;9.60;99.90;;;;;;5000101;28;20193;-90
2021/01/29 11:57:45;;;;;;;19.73;8.90;;;9.70;99.90;;;;;;5000185;28;20281;-90
2021/01/29 12:00:19;;;;;;;27.60;9.60;;;9.90;99.90;;;;;;4999463;28;20217;-91
2021/01/29 12:03:06;;;;;;;16.90;6.07;;;10.30;99.90;;;;;;4984917;28;20202;-92
2021/01/29 12:05:39;;;;;;;18.40;7.38;;;10.40;99.90;;;;;;5002181;28;20236;-88
2021/01/29 12:11:19;;;;;;;20.17;6.10;;;10.20;99.90;;;;;;4982354;28;20230;-90
2021/01/29 12:13:57;;;;;;;14.80;6.55;;;10.10;99.90;;;;;;4997830;28;20190;-90
2021/01/29 12:16:28;;;;;;;18.30;6.88;;;10.20;99.90;;;;;;5003044;28;20200;-88
2021/01/29 12:18:58;;;;;;;11.90;5.45;;;10.20;99.90;;;;;;5004228;28;20206;-92
2021/01/29 12:21:47;;;;;;;19.50;7.82;;;10.00;99.90;;;;;;5004229;28;20190;-90
2021/01/29 12:24:28;;;;;;;15.68;7.50;;;10.00;99.90;;;;;;5003453;28;20182;-89
2021/01/29 12:27:01;;;;;;;15.00;6.82;;;9.80;99.90;;;;;;5001120;28;20221;-89
2021/01/29 12:29:45;;;;;;;16.38;6.60;;;9.70;99.90;;;;;;5002419;28;20281;-86
2021/01/29 12:32:35;;;;;;;17.13;9.10;;;9.40;99.90;;;;;;4999022;28;20293;-87
2021/01/29 12:35:08;;;;;;;19.20;10.13;;;9.30;99.90;;;;;;4999573;28;20194;-89
2021/01/29 12:37:37;;;;;;;19.75;8.23;;;9.20;99.90;;;;;;4997879;28;20345;-89
2021/01/29 12:40:08;;;;;;;27.80;10.25;;;9.30;99.90;;;;;;4996767;28;20263;-87
2021/01/29 12:42:55;;;;;;;19.08;9.63;;;9.20;99.90;;;;;;4996848;28;20190;-90
2021/01/29 12:45:29;;;;;;;21.10;8.63;;;9.10;99.90;;;;;;4997617;28;20622;-90
2021/01/29 12:48:07;;;;;;;16.98;10.23;;;9.00;99.90;;;;;;4997934;28;20186;-91
2021/01/29 12:50:47;;;;;;;13.52;7.85;;;9.20;99.90;;;;;;4997734;28;20192;-90
2021/01/29 12:53:16;;;;;;;26.00;10.95;;;9.10;99.90;;;;;;4999928;28;20178;-91
2021/01/29 12:55:52;;;;;;;18.30;10.32;;;9.10;99.90;;;;;;4999154;28;20197;-91
2021/01/29 12:58:18;;;;;;;20.75;9.75;;;9.10;99.90;;;;;;4996606;28;20194;-91
2021/01/29 13:00:46;;;;;;;16.42;8.50;;;9.10;99.90;;;;;;4996124;28;20628;-90
2021/01/29 13:03:30;;;;;;;19.10;9.52;;;9.00;99.90;;;;;;4996285;28;20182;-90
2021/01/29 13:06:25;;;;;;;12.77;7.75;;;9.10;99.90;;;;;;4996032;28;20637;-89
2021/01/29 13:09:10;;;;;;;19.58;8.90;;;9.10;99.90;;;;;;4987275;28;20201;-90
2021/01/29 13:11:48;;;;;;;21.63;10.00;;;9.20;99.90;;;;;;4995799;28;20201;-89
2021/01/29 13:14:24;;;;;;;19.25;10.07;;;9.20;99.90;;;;;;4995552;28;20198;-90
2021/01/29 13:17:17;;;;;;;18.65;9.23;;;9.20;99.90;;;;;;4995661;28;20189;-88
2021/01/29 13:19:45;;;;;;;20.27;8.40;;;9.30;99.90;;;;;;4975865;28;20745;-89
2021/01/29 13:22:33;;;;;;;30.02;8.13;;;9.50;99.90;;;;;;4990953;28;20558;-89
2021/01/29 13:25:06;;;;;;;11.10;6.50;;;9.80;99.90;;;;;;4997285;28;20190;-89
2021/01/29 13:27:39;;;;;;;15.27;5.97;;;10.00;99.90;;;;;;4998227;28;20182;-90
2021/01/29 13:30:16;;;;;;;13.20;5.88;;;10.10;99.90;;;;;;4999489;28;20240;-88
2021/01/29 13:32:46;;;;;;;13.40;5.97;;;10.00;99.90;;;;;;4997866;28;20190;-89
2021/01/29 13:35:13;;;;;;;14.48;6.60;;;10.00;99.90;;;;;;4998424;28;20634;-87
2021/01/29 13:37:41;;;;;;;16.45;7.60;;;9.90;99.90;;;;;;4998160;28;20186;-92
2021/01/29 13:40:12;;;;;;;11.05;6.53;;;9.70;99.90;;;;;;4996801;28;20217;-91
2021/01/29 13:42:43;;;;;;;12.57;6.30;;;9.80;99.90;;;;;;4999107;28;20194;-93
2021/01/29 13:45:15;;;;;;;10.00;6.03;;;9.70;99.90;;;;;;4997743;28;20190;-91
2021/01/29 13:47:47;;;;;;;20.88;8.27;;;9.70;99.90;;;;;;4999219;28;20194;-91
2021/01/29 13:50:20;;;;;;;19.27;7.28;;;9.50;99.90;;;;;;4999679;28;20198;-90
2021/01/29 13:52:51;;;;;;;18.05;9.23;;;9.30;99.90;;;;;;4999044;28;20194;-91
2021/01/29 13:55:27;;;;;;;14.30;6.68;;;9.20;99.90;;;;;;5000031;28;20204;-94
2021/01/29 13:57:57;;;;;;;16.23;8.05;;;9.10;99.90;;;;;;4997094;28;20661;-92
2021/01/29 14:00:28;;;;;;;12.90;7.75;;;9.00;99.90;;;;;;4996329;28;20271;-91
2021/01/29 14:03:02;;;;;;;14.05;7.05;;;8.80;99.90;;;;;;4997973;28;20204;-94
2021/01/29 14:05:29;;;;;;;6.60;3.30;;;8.70;99.90;;;;;;4998541;28;20204;-92
2021/01/29 14:08:10;;;;;;;8.65;4.65;;;8.50;99.90;;;;;;4996216;28;20190;-95
2021/01/29 14:10:44;;;;;;;10.30;3.45;;;8.40;99.90;;;;;;5003960;28;20244;-89
2021/01/29 14:13:38;;;;;;;9.52;3.25;;;8.20;99.90;;;;;;5003994;28;20186;-93
2021/01/29 14:16:13;;;;;;;8.27;3.58;;;8.30;99.90;;;;;;5004182;28;20278;-93
2021/01/29 14:19:09;;;;;;;6.75;3.33;;;8.30;99.90;;;;;;5004051;28;20219;-92
2021/01/29 14:21:49;;;;;;;9.30;3.42;;;8.20;99.90;;;;;;5006796;28;20200;-93
2021/01/29 14:24:26;;;;;;;9.23;3.75;;;8.20;99.90;;;;;;5022410;23;20218;-96
2021/01/29 14:26:59;;;;;;;5.60;3.50;;;8.20;99.90;;;;;;4991405;28;20186;-95
2021/01/29 14:29:33;;;;;;;11.80;3.63;;;8.20;99.90;;;;;;5008197;28;20201;-96
2021/01/29 14:37:26;;;;;;;15.02;4.68;;;8.30;99.90;;;;;;5406535;23;20632;-95
2021/01/29 14:45:34;;;;;;;11.05;4.80;;;8.30;99.90;;;;;;5018198;23;20241;-93
2021/01/29 14:48:18;;;;;;;10.95;6.57;;;8.30;99.90;;;;;;4977393;28;20198;-93
2021/01/29 14:51:09;;;;;;;18.27;4.93;;;8.30;99.90;;;;;;4978131;28;20195;-93
2021/01/29 14:53:46;;;;;;;8.00;3.95;;;8.30;99.90;;;;;;5000847;28;20210;-93
2021/01/29 14:56:18;;;;;;;17.88;5.50;;;8.30;99.90;;;;;;4997387;28;20221;-94
2021/01/29 14:58:50;;;;;;;13.60;5.43;;;8.30;99.90;;;;;;4991604;28;20306;-90
2021/01/29 15:01:20;;;;;;;13.90;4.70;;;8.30;99.90;;;;;;4991806;28;20199;-96
2021/01/29 15:03:53;;;;;;;15.48;6.15;;;8.40;99.90;;;;;;4985540;28;20623;-92
2021/01/29 15:06:24;;;;;;;7.70;4.90;;;8.60;99.90;;;;;;4985429;28;20197;-93
2021/01/29 15:08:56;;;;;;;12.88;6.18;;;8.80;99.90;;;;;;4979295;28;20206;-90
2021/01/29 15:11:29;;;;;;;21.80;5.40;;;8.60;99.90;;;;;;4979903;28;20186;-92
2021/01/29 15:13:57;;;;;;;9.40;4.80;;;8.50;99.90;;;;;;4970576;28;20230;-92
2021/01/29 15:16:50;;;;;;;8.82;5.05;;;8.40;99.90;;;;;;4980217;28;20198;-92
2021/01/29 15:19:34;;;;;;;12.98;4.97;;;8.30;99.90;;;;;;4981244;28;20207;-91
2021/01/29 15:22:03;;;;;;;11.95;4.93;;;8.20;99.90;;;;;;4979886;28;20241;-90
2021/01/29 15:24:36;;;;;;;13.95;5.75;;;8.20;99.90;;;;;;4974947;28;20202;-88
2021/01/29 15:27:05;;;;;;;11.63;6.35;;;8.30;99.90;;;;;;4980364;28;20214;-93
2021/01/29 15:29:45;;;;;;;18.88;7.25;;;8.20;99.90;;;;;;4980133;28;20627;-92
2021/01/29 15:32:24;;;;;;;22.60;6.85;;;8.20;99.90;;;;;;4971172;28;20194;-90
2021/01/29 15:35:17;;;;;;;17.40;7.38;;;8.10;99.90;;;;;;4980509;28;20195;-91
2021/01/29 15:37:52;;;;;;;12.40;4.30;;;8.10;99.90;;;;;;4981524;28;20214;-92
2021/01/29 15:40:33;;;;;;;15.80;5.63;;;8.10;99.90;;;;;;4972928;28;20627;-91
2021/01/29 15:43:02;;;;;;;12.13;5.43;;;8.20;99.90;;;;;;4978715;28;20646;-89
2021/01/29 15:45:52;;;;;;;16.80;5.38;;;8.20;99.90;;;;;;4982551;28;20234;-94
2021/01/29 15:48:39;;;;;;;15.85;5.65;;;8.20;99.90;;;;;;4982538;28;20195;-94
2021/01/29 15:51:08;;;;;;;16.65;5.95;;;8.20;99.90;;;;;;4980705;28;20190;-93
2021/01/29 15:53:57;;;;;;;18.73;5.20;;;8.20;99.90;;;;;;4980173;28;20334;-93
2021/01/29 15:56:36;;;;;;;8.32;3.92;;;8.20;99.90;;;;;;4975635;28;20206;-92
2021/01/29 15:59:14;;;;;;;13.18;4.25;;;8.20;99.90;;;;;;4978416;28;20222;-93
2021/01/29 16:01:44;;;;;;;18.10;5.20;;;8.20;99.90;;;;;;4979395;28;20187;-91
2021/01/29 16:04:30;;;;;;;17.55;5.22;;;8.20;99.90;;;;;;4979610;28;20191;-92
2021/01/29 16:07:03;;;;;;;11.23;3.92;;;8.20;99.90;;;;;;4976839;28;20190;-91
2021/01/29 16:09:34;;;;;;;10.82;4.80;;;8.20;99.90;;;;;;4978694;28;20207;-91
2021/01/29 16:12:31;;;;;;;15.77;3.85;;;8.30;99.90;;;;;;4976136;28;20454;-94
2021/01/29 16:15:00;;;;;;;12.05;4.13;;;8.30;99.90;;;;;;4978112;28;20450;-93
2021/01/29 16:17:27;;;;;;;11.43;3.88;;;8.30;99.90;;;;;;4970854;28;20196;-93
2021/01/29 16:20:10;;;;;;;9.05;4.13;;;8.30;99.90;;;;;;4964925;28;20219;-92
2021/01/29 16:22:36;;;;;;;12.95;4.88;;;8.30;99.90;;;;;;4978572;28;20657;-93
2021/01/29 16:25:04;;;;;;;11.95;4.07;;;8.30;99.90;;;;;;4979041;28;20187;-93
2021/01/29 16:27:35;;;;;;;14.85;6.43;;;8.30;99.90;;;;;;4979790;28;20197;-92
2021/01/29 16:30:07;;;;;;;10.13;5.05;;;8.30;99.90;;;;;;4979442;28;20195;-94
2021/01/29 16:32:35;;;;;;;12.55;5.75;;;8.30;99.90;;;;;;4980903;28;20187;-88
2021/01/29 16:35:08;;;;;;;15.15;5.63;;;8.20;99.90;;;;;;4979086;28;20199;-90
2021/01/29 16:37:38;;;;;;;16.95;5.90;;;8.20;99.90;;;;;;4978561;28;20203;-92
2021/01/29 16:40:18;;;;;;;12.38;6.15;;;8.20;99.90;;;;;;4983831;28;20240;-95
2021/01/29 16:42:48;;;;;;;8.40;5.50;;;8.20;99.90;;;;;;4978595;28;20251;-92
2021/01/29 16:45:37;;;;;;;10.15;5.00;;;8.20;99.90;;;;;;4985293;28;20606;-93
2021/01/29 16:48:05;;;;;;;10.35;4.13;;;8.10;99.90;;;;;;4964128;29;20214;-92
2021/01/29 16:50:41;;;;;;;11.93;6.00;;;8.10;99.90;;;;;;4979866;28;20201;-93
2021/01/29 16:53:12;;;;;;;9.73;5.22;;;8.10;99.90;;;;;;4988166;28;20535;-92
2021/01/29 16:55:41;;;;;;;13.73;5.25;;;8.00;99.90;;;;;;4988871;28;20187;-91
2021/01/29 16:58:24;;;;;;;9.05;4.43;;;8.10;99.90;;;;;;4988208;28;20195;-93
2021/01/29 17:00:52;;;;;;;12.25;4.80;;;8.10;99.90;;;;;;4983534;28;20256;-93
2021/01/29 17:03:35;;;;;;;9.00;6.22;;;8.00;99.90;;;;;;4987375;28;20193;-91
2021/01/29 17:06:21;;;;;;;11.82;6.10;;;8.00;99.90;;;;;;4988462;28;20201;-96
2021/01/29 17:08:48;;;;;;;18.33;5.45;;;7.90;99.90;;;;;;4987984;28;20183;-93
2021/01/29 17:11:32;;;;;;;12.88;5.90;;;7.90;99.90;;;;;;4992852;28;20411;-94
2021/01/29 17:17:24;;;;;;;5.75;5.15;;;7.80;99.90;;;;;;4991068;28;20183;-91
2021/01/29 17:19:54;;;;;;;14.27;5.55;;;7.80;99.90;;;;;;4982918;28;20222;-89
2021/01/29 17:22:25;;;;;;;12.02;5.18;;;7.80;99.90;;;;;;4980285;28;20241;-91
2021/01/29 17:27:42;;;;;;;18.58;6.57;;;7.80;99.90;;;;;;4982478;28;20229;-92
2021/01/29 17:30:11;;;;;;;12.27;8.15;;;7.80;99.90;;;;;;4991705;28;20254;-90
2021/01/29 17:32:41;;;;;;;10.90;6.03;;;7.80;99.90;;;;;;4972350;29;20199;-93
2021/01/29 17:35:13;;;;;;;12.90;10.45;;;7.80;99.90;;;;;;4992786;28;20291;-93
2021/01/29 17:37:39;;;;;;;20.67;10.90;;;7.80;99.90;;;;;;4986109;28;20194;-93
2021/01/29 17:40:28;;;;;;;23.13;8.93;;;7.90;99.90;;;;;;4992006;28;20294;-92
2021/01/29 17:42:56;;;;;;;31.58;20.63;;;7.80;99.90;;;;;;4982144;28;20209;-93
2021/01/29 17:45:28;;;;;;;16.13;11.95;;;7.90;99.90;;;;;;4981734;28;20226;-95
2021/01/29 17:48:27;;;;;;;15.02;7.90;;;7.80;99.90;;;;;;4966383;28;20209;-95
2021/01/29 17:50:56;;;;;;;19.90;10.77;;;7.80;99.90;;;;;;4968044;29;20195;-94
2021/01/29 17:53:51;;;;;;;18.80;6.15;;;7.80;99.90;;;;;;4973026;28;20242;-94
2021/01/29 17:56:33;;;;;;;27.73;9.48;;;7.80;99.90;;;;;;4993070;28;20198;-94
2021/01/29 17:58:59;;;;;;;9.93;6.18;;;7.70;99.90;;;;;;4981573;28;20220;-92
2021/01/29 18:01:38;;;;;;;10.93;5.93;;;7.70;99.90;;;;;;4979775;28;20702;-94
2021/01/29 18:04:09;;;;;;;21.05;9.48;;;7.70;99.90;;;;;;4982378;28;20198;-94
2021/01/29 18:06:48;;;;;;;13.77;6.22;;;7.70;99.90;;;;;;4984097;28;20194;-92
2021/01/29 18:09:37;;;;;;;19.58;6.60;;;7.70;99.90;;;;;;4983882;28;20263;-94
2021/01/29 18:12:09;;;;;;;17.67;7.32;;;7.70;99.90;;;;;;4979960;28;20250;-92
2021/01/29 18:20:42;;;;;;;20.67;9.52;;;7.70;99.90;;;;;;4965706;28;20207;-93
2021/01/29 18:23:13;;;;;;;16.88;8.15;;;7.70;99.90;;;;;;4987340;28;20601;-94
2021/01/29 18:25:39;;;;;;;17.23;9.52;;;7.70;99.90;;;;;;4991006;28;20221;-93
2021/01/29 18:28:06;;;;;;;27.55;11.13;;;7.70;99.90;;;;;;4987293;28;20250;-92
2021/01/29 18:30:33;;;;;;;24.77;10.85;;;7.70;99.90;;;;;;4985946;28;20189;-93
2021/01/29 18:33:04;;;;;;;23.90;10.57;;;7.70;99.90;;;;;;4987583;28;20187;-92
2021/01/29 18:35:30;;;;;;;16.63;9.75;;;7.70;99.90;;;;;;4984530;28;20210;-91
2021/01/29 18:38:00;;;;;;;14.13;10.38;;;7.70;99.90;;;;;;4984735;28;20249;-94
2021/01/29 18:40:28;;;;;;;20.40;11.45;;;7.70;99.90;;;;;;4987033;28;20299;-94
2021/01/29 18:42:56;;;;;;;18.05;10.32;;;7.70;99.90;;;;;;4988402;28;20204;-94
2021/01/29 18:48:05;;;;;;;20.30;12.70;;;7.80;99.90;;;;;;4989959;28;20195;-94
2021/01/29 18:50:34;;;;;;;15.32;11.27;;;7.70;99.90;;;;;;4973489;28;20263;-94
2021/01/29 18:53:07;;;;;;;29.02;12.63;;;7.80;99.90;;;;;;4974159;29;20256;-96
2021/01/29 18:55:35;;;;;;;21.23;12.13;;;7.70;99.90;;;;;;4975390;29;20203;-91
2021/01/29 18:58:03;;;;;;;25.38;11.93;;;7.80;99.90;;;;;;5006545;23;20220;-95
2021/01/29 19:00:31;;;;;;;23.60;11.68;;;7.70;99.90;;;;;;4968343;28;20287;-95
2021/01/29 19:02:58;;;;;;;14.60;11.40;;;7.80;99.90;;;;;;4966400;28;20193;-92
2021/01/29 19:05:29;;;;;;;20.95;12.20;;;7.80;99.90;;;;;;4969325;28;20199;-95
2021/01/29 19:07:57;;;;;;;19.38;12.02;;;7.80;99.90;;;;;;4968548;29;20197;-94
2021/01/29 19:10:28;;;;;;;24.10;12.43;;;7.80;99.90;;;;;;4967922;29;20686;-94
2021/01/29 19:12:57;;;;;;;21.67;13.10;;;7.80;99.90;;;;;;4966928;28;20188;-92
2021/01/29 19:15:35;;;;;;;23.73;12.18;;;7.70;99.90;;;;;;4965696;28;20195;-93
2021/01/29 19:18:01;;;;;;;21.83;12.32;;;7.70;99.90;;;;;;4968379;28;20195;-94
2021/01/29 19:20:31;;;;;;;22.75;12.77;;;7.70;99.90;;;;;;4970094;28;20230;-93
2021/01/29 19:23:06;;;;;;;21.73;12.70;;;7.70;99.90;;;;;;4970209;28;20187;-93